SKLT/LET METAR and TAF weather

Enter ICAO airport designator
Station Type Date Time Source
SKLT METAR 2021/10/22 19:00 UTC NOAA

SKLT 221900Z 01004KT 9999 FEW020 SCT080 31/25 Q1007 RMK A2976


Station Type Date Time Source
SKLT Decoded METAR 2021/10/22 19:00 UTC NOAA

Leticia / Vasquez Cobo, Colombia (SKLT) 04-10S 069-57W 84M
Oct 22, 2021 - 03:00 PM EDT / 2021.10.22 1900 UTC
Wind: from the N (010 degrees) at 5 MPH (4 KT):0
Visibility: greater than 7 mile(s):0
Sky conditions: partly cloudy
Temperature: 87 F (31 C)
Heat index: 97.5 F (36.4 C):1
Dew Point: 77 F (25 C)
Relative Humidity: 70%
Pressure (altimeter): 29.74 in. Hg (1007 hPa)
ob: SKLT 221900Z 01004KT 9999 FEW020 SCT080 31/25 Q1007 RMK A2976
cycle: 19

Station Type Date Time Source
SKLT TAF 2021/10/22 18:45 UTC NOAA

TAF SKLT 221630Z 2218/2318 27005KT 9999 SCT015 BKN080
TEMPO 2220/2223 5000 TSRA SCT015CB PROB40
TEMPO 2307/2310 4000 TSRA BKN012CB TX30/2219Z TN23/2310Z

Example: see airport list